Time;durP1;ratioP1;P1;durP2;ratioP2;P2;SDS_P1;SDS_P2;PMS_P1;PMS_P2;Temp;Humidity;BMP_temperature;BMP_pressure;BME280_temperature;BME280_humidity;BME280_pressure;Samples;Min_cycle;Max_cycle;Signal;HPM_P1;HPM_P2
2022/04/13 00:00:47;;;;;;;10.20;6.47;;;12.60;99.90;;;;;;5096956;28;20051;-77
2022/04/13 00:03:12;;;;;;;9.90;6.35;;;12.60;99.90;;;;;;5097716;28;20039;-77
2022/04/13 00:05:38;;;;;;;8.80;6.82;;;12.60;99.90;;;;;;5080719;28;20119;-78
2022/04/13 00:08:07;;;;;;;10.43;6.75;;;12.60;99.90;;;;;;5115313;28;20044;-78
2022/04/13 00:10:36;;;;;;;7.53;5.68;;;12.60;99.90;;;;;;5115425;28;20108;-77
2022/04/13 00:13:02;;;;;;;9.30;6.72;;;12.50;99.90;;;;;;5097176;28;20074;-78
2022/04/13 00:15:28;;;;;;;14.98;6.65;;;12.50;99.90;;;;;;5097401;28;20487;-78
2022/04/13 00:17:53;;;;;;;7.95;6.55;;;12.50;99.90;;;;;;5116591;27;20039;-77
2022/04/13 00:20:20;;;;;;;11.10;6.93;;;12.40;99.90;;;;;;5117617;27;20035;-77
2022/04/13 00:22:46;;;;;;;10.52;7.13;;;12.40;99.90;;;;;;5100935;27;20058;-77
2022/04/13 00:25:12;;;;;;;10.52;6.63;;;12.40;99.90;;;;;;5117129;27;20043;-77
2022/04/13 00:27:37;;;;;;;9.07;6.53;;;12.40;99.90;;;;;;5134720;27;20039;-77
2022/04/13 00:30:03;;;;;;;9.18;6.30;;;12.40;99.90;;;;;;5090691;28;20055;-78
2022/04/13 00:32:29;;;;;;;10.05;7.35;;;12.30;99.90;;;;;;5113773;28;20081;-77
2022/04/13 00:34:57;;;;;;;9.40;7.03;;;12.40;99.90;;;;;;5113354;28;20055;-77
2022/04/13 00:37:23;;;;;;;10.63;8.02;;;12.40;99.90;;;;;;5113903;28;20044;-77
2022/04/13 00:39:48;;;;;;;13.00;8.30;;;12.40;99.90;;;;;;5114043;28;20069;-77
2022/04/13 00:42:16;;;;;;;11.95;8.65;;;12.40;99.90;;;;;;5113339;28;20050;-79
2022/04/13 00:44:42;;;;;;;14.18;8.90;;;12.30;99.90;;;;;;5128172;27;20470;-77
2022/04/13 00:47:08;;;;;;;13.80;9.40;;;12.40;99.90;;;;;;5117236;27;20122;-77
2022/04/13 00:49:35;;;;;;;9.73;7.97;;;12.40;99.90;;;;;;5100373;27;20383;-78
2022/04/13 00:52:01;;;;;;;11.35;8.00;;;12.40;99.90;;;;;;5099553;27;20039;-77
2022/04/13 00:54:29;;;;;;;15.30;9.05;;;12.40;99.90;;;;;;5100300;27;20387;-78
2022/04/13 00:56:54;;;;;;;11.57;8.48;;;12.50;99.90;;;;;;5099711;27;20079;-78
2022/04/13 00:59:20;;;;;;;12.13;9.13;;;12.50;99.90;;;;;;5099865;27;20190;-78
2022/04/13 01:01:47;;;;;;;11.85;8.30;;;12.50;99.90;;;;;;5099736;27;20483;-78
2022/04/13 01:04:13;;;;;;;13.65;8.77;;;12.50;99.90;;;;;;5117151;27;20483;-77
2022/04/13 01:06:39;;;;;;;14.65;7.82;;;12.50;99.90;;;;;;5099727;27;20130;-77
2022/04/13 01:09:05;;;;;;;13.43;8.10;;;12.50;99.90;;;;;;5099368;27;20426;-77
2022/04/13 01:11:30;;;;;;;11.15;8.30;;;12.50;99.90;;;;;;5116718;27;20047;-77
2022/04/13 01:13:57;;;;;;;12.25;8.88;;;12.60;99.90;;;;;;5116082;27;20391;-78
2022/04/13 01:16:23;;;;;;;12.10;8.43;;;12.60;99.90;;;;;;5116522;27;20039;-77
2022/04/13 01:18:49;;;;;;;13.57;8.98;;;12.60;99.90;;;;;;5126256;27;20055;-77
2022/04/13 01:21:17;;;;;;;12.63;8.90;;;12.60;99.90;;;;;;5125568;27;20429;-78
2022/04/13 01:23:43;;;;;;;13.82;8.55;;;12.60;99.90;;;;;;5116744;27;20055;-77
2022/04/13 01:26:10;;;;;;;14.65;9.20;;;12.60;99.90;;;;;;5134268;27;20134;-77
2022/04/13 01:28:36;;;;;;;10.80;8.80;;;12.60;99.90;;;;;;5116307;27;20047;-78
2022/04/13 01:31:02;;;;;;;9.95;8.25;;;12.60;99.90;;;;;;5098927;27;20096;-77
2022/04/13 01:33:28;;;;;;;15.75;9.20;;;12.60;99.90;;;;;;5082655;27;20096;-77
2022/04/13 01:35:56;;;;;;;12.38;8.65;;;12.50;99.90;;;;;;5098313;28;20062;-77
2022/04/13 01:38:22;;;;;;;10.90;8.75;;;12.50;99.90;;;;;;5107215;27;20047;-77
2022/04/13 01:40:49;;;;;;;11.68;8.70;;;12.50;99.90;;;;;;5098990;27;20383;-77
2022/04/13 01:43:15;;;;;;;11.70;7.97;;;12.50;99.90;;;;;;5081551;27;20416;-77
2022/04/13 01:45:40;;;;;;;10.80;8.13;;;12.50;99.90;;;;;;5115870;27;20134;-77
2022/04/13 01:48:09;;;;;;;11.27;8.68;;;12.50;99.90;;;;;;5081562;27;20047;-77
2022/04/13 01:50:35;;;;;;;12.50;9.05;;;12.40;99.90;;;;;;5115702;27;20103;-77
2022/04/13 01:53:00;;;;;;;10.65;7.90;;;12.40;99.90;;;;;;5115389;27;20126;-78
2022/04/13 01:55:26;;;;;;;12.45;8.50;;;12.40;99.90;;;;;;5128231;27;20520;-77
2022/04/13 01:57:52;;;;;;;14.13;8.80;;;12.30;99.90;;;;;;5136303;27;20042;-77
2022/04/13 02:00:17;;;;;;;9.05;7.93;;;12.30;99.90;;;;;;5118733;27;20180;-77
2022/04/13 02:02:43;;;;;;;10.80;7.55;;;12.20;99.90;;;;;;5136530;27;20482;-77
2022/04/13 02:05:09;;;;;;;12.90;8.45;;;12.20;99.90;;;;;;5118588;27;20142;-77
2022/04/13 02:07:35;;;;;;;11.23;8.27;;;12.20;99.90;;;;;;5102194;27;20081;-77
2022/04/13 02:10:01;;;;;;;12.20;8.20;;;12.10;99.90;;;;;;5127593;27;20099;-78
2022/04/13 02:12:27;;;;;;;14.55;8.68;;;12.10;99.90;;;;;;5113981;27;20177;-77
2022/04/13 02:14:53;;;;;;;10.23;8.27;;;12.10;99.90;;;;;;5098504;27;20043;-77
2022/04/13 02:17:20;;;;;;;11.57;8.32;;;12.00;99.90;;;;;;5115003;28;20050;-77
2022/04/13 02:19:45;;;;;;;9.93;8.20;;;12.00;99.90;;;;;;5151380;27;20055;-77
2022/04/13 02:22:11;;;;;;;11.60;7.90;;;12.00;99.90;;;;;;5118491;27;20038;-77
2022/04/13 02:24:39;;;;;;;11.50;7.95;;;12.00;99.90;;;;;;5118938;27;20046;-77
2022/04/13 02:27:05;;;;;;;10.75;8.85;;;11.90;99.90;;;;;;5115044;27;20043;-78
2022/04/13 02:29:31;;;;;;;12.05;8.70;;;11.90;99.90;;;;;;5128137;27;20039;-79
2022/04/13 02:31:56;;;;;;;10.00;8.57;;;11.90;99.90;;;;;;5135700;27;20035;-77
2022/04/13 02:34:22;;;;;;;10.55;8.88;;;12.00;99.90;;;;;;5135234;27;20047;-77
2022/04/13 02:36:47;;;;;;;13.40;9.77;;;11.90;99.90;;;;;;5135793;27;20410;-77
2022/04/13 02:39:13;;;;;;;14.40;9.35;;;11.90;99.90;;;;;;5125547;28;20043;-77
2022/04/13 02:41:40;;;;;;;19.70;10.82;;;11.90;99.90;;;;;;5098405;28;20047;-77
2022/04/13 02:44:06;;;;;;;18.80;12.02;;;11.90;99.90;;;;;;5098319;28;20462;-77
2022/04/13 02:46:32;;;;;;;15.05;10.95;;;11.90;99.90;;;;;;5115781;28;20128;-77
2022/04/13 02:48:57;;;;;;;16.80;11.07;;;11.80;99.90;;;;;;5117520;27;20043;-77
2022/04/13 02:51:23;;;;;;;14.90;11.20;;;11.80;99.90;;;;;;5084789;27;20039;-78
2022/04/13 02:53:49;;;;;;;18.05;12.30;;;11.80;99.90;;;;;;5137564;27;20043;-77
2022/04/13 02:56:14;;;;;;;16.27;12.10;;;11.80;99.90;;;;;;5118812;27;20479;-77
2022/04/13 02:58:40;;;;;;;20.30;13.23;;;11.70;99.90;;;;;;5119148;27;20096;-77
2022/04/13 03:01:06;;;;;;;20.67;13.48;;;11.80;99.90;;;;;;5102394;27;20051;-77
2022/04/13 03:03:32;;;;;;;19.23;13.68;;;11.70;99.90;;;;;;5137601;27;20061;-77
2022/04/13 03:05:58;;;;;;;22.10;15.27;;;11.80;99.90;;;;;;5085314;27;20386;-77
2022/04/13 03:08:23;;;;;;;26.40;15.40;;;11.70;99.90;;;;;;5101726;27;20126;-78
2022/04/13 03:10:49;;;;;;;26.38;15.55;;;11.80;99.90;;;;;;5068469;27;20100;-77
2022/04/13 03:13:15;;;;;;;21.38;15.02;;;11.70;99.90;;;;;;5118510;27;20086;-77
2022/04/13 03:15:40;;;;;;;23.50;14.68;;;11.70;99.90;;;;;;5118842;27;20050;-77
2022/04/13 03:18:07;;;;;;;19.48;13.32;;;11.80;99.90;;;;;;5105657;27;20047;-77
2022/04/13 03:20:33;;;;;;;18.85;12.73;;;11.70;99.90;;;;;;5108287;27;20479;-77
2022/04/13 03:22:59;;;;;;;21.98;14.75;;;11.70;99.90;;;;;;5101818;27;20046;-77
2022/04/13 03:25:24;;;;;;;19.63;12.93;;;11.80;99.90;;;;;;5084546;27;20047;-77
2022/04/13 03:27:50;;;;;;;18.73;13.30;;;11.80;99.90;;;;;;5101941;27;20047;-77
2022/04/13 03:30:16;;;;;;;16.63;12.70;;;11.80;99.90;;;;;;5117847;27;20054;-77
2022/04/13 03:32:42;;;;;;;18.48;13.32;;;11.80;99.90;;;;;;5118794;27;20035;-77
2022/04/13 03:35:10;;;;;;;19.60;13.70;;;11.70;99.90;;;;;;5101379;27;20087;-77
2022/04/13 03:37:36;;;;;;;19.50;13.57;;;11.70;99.90;;;;;;5118963;27;20050;-77
2022/04/13 03:40:02;;;;;;;18.10;13.00;;;11.70;99.90;;;;;;5118344;27;20379;-77
2022/04/13 03:42:33;;;;;;;18.75;13.15;;;11.60;99.90;;;;;;5118025;27;20035;-77
2022/04/13 03:45:00;;;;;;;;;;;11.70;99.90;;;;;;5118525;27;20535;-77
2022/04/13 03:47:26;;;;;;;19.40;13.63;;;11.60;99.90;;;;;;5100813;27;19923;-77
2022/04/13 03:49:52;;;;;;;18.35;13.55;;;11.60;99.90;;;;;;5136295;27;20035;-77
2022/04/13 03:52:17;;;;;;;18.45;14.43;;;11.60;99.90;;;;;;5117629;27;20069;-77
2022/04/13 03:54:43;;;;;;;21.90;15.13;;;11.60;99.90;;;;;;5095717;27;20050;-77
2022/04/13 03:57:09;;;;;;;18.90;13.23;;;11.50;99.90;;;;;;5084234;27;20047;-77
2022/04/13 03:59:34;;;;;;;19.80;13.77;;;11.50;99.90;;;;;;5116813;27;20368;-77
2022/04/13 04:02:00;;;;;;;20.02;14.68;;;11.50;99.90;;;;;;5118293;27;20043;-77
2022/04/13 04:04:25;;;;;;;19.45;14.48;;;11.50;99.90;;;;;;5135605;27;20050;-77
2022/04/13 04:06:51;;;;;;;20.33;14.43;;;11.50;99.90;;;;;;5117726;27;20050;-77
2022/04/13 04:09:17;;;;;;;17.85;13.85;;;11.40;99.90;;;;;;5117680;27;20075;-80
2022/04/13 04:11:42;;;;;;;18.25;13.93;;;11.40;99.90;;;;;;5112549;27;20035;-77
2022/04/13 04:14:08;;;;;;;23.67;14.10;;;11.40;99.90;;;;;;5118061;27;20075;-77
2022/04/13 04:16:34;;;;;;;20.20;13.82;;;11.40;99.90;;;;;;5116898;27;20039;-77
2022/04/13 04:18:59;;;;;;;20.48;13.18;;;11.40;99.90;;;;;;5111878;27;20054;-77
2022/04/13 04:21:25;;;;;;;21.20;13.35;;;11.40;99.90;;;;;;5156244;27;20046;-77
2022/04/13 04:23:51;;;;;;;19.95;14.02;;;11.40;99.90;;;;;;5121146;27;20034;-77
2022/04/13 04:26:16;;;;;;;19.25;13.60;;;11.30;99.90;;;;;;5087513;27;20039;-77
2022/04/13 04:28:42;;;;;;;19.35;13.85;;;11.30;99.90;;;;;;5122462;27;20427;-77
2022/04/13 04:31:08;;;;;;;20.35;13.68;;;11.30;99.90;;;;;;5100555;27;20039;-77
2022/04/13 04:33:34;;;;;;;20.17;13.40;;;11.30;99.90;;;;;;5100180;27;20111;-77
2022/04/13 04:36:01;;;;;;;16.90;13.32;;;11.30;99.90;;;;;;5100548;27;20039;-77
2022/04/13 04:38:30;;;;;;;20.92;14.30;;;11.30;99.90;;;;;;5099172;27;20086;-80
2022/04/13 04:40:57;;;;;;;17.85;13.85;;;11.30;99.90;;;;;;5128887;27;20039;-77
2022/04/13 04:43:23;;;;;;;19.75;14.45;;;11.30;99.90;;;;;;5099958;27;20050;-82
2022/04/13 04:45:48;;;;;;;22.88;16.63;;;11.30;99.90;;;;;;5104497;27;20048;-78
2022/04/13 04:48:14;;;;;;;25.92;15.57;;;11.40;99.90;;;;;;5135117;27;20043;-78
2022/04/13 04:50:40;;;;;;;23.90;15.98;;;11.30;99.90;;;;;;5137795;27;20085;-78
2022/04/13 04:53:05;;;;;;;19.05;14.73;;;11.30;99.90;;;;;;5132644;27;20490;-77
2022/04/13 04:55:31;;;;;;;19.98;14.68;;;11.40;99.90;;;;;;5136521;27;20043;-77
2022/04/13 04:57:57;;;;;;;19.85;15.50;;;11.40;99.90;;;;;;5132802;27;20135;-77
2022/04/13 05:00:22;;;;;;;19.80;15.57;;;11.40;99.90;;;;;;5122599;27;20046;-77
2022/04/13 05:02:52;;;;;;;24.10;15.75;;;11.40;99.90;;;;;;5123882;27;20042;-77
2022/04/13 05:05:17;;;;;;;21.23;15.88;;;11.40;99.90;;;;;;5100198;27;20065;-78
2022/04/13 05:07:43;;;;;;;22.60;15.48;;;11.40;99.90;;;;;;5097428;27;20463;-77
2022/04/13 05:10:09;;;;;;;21.23;15.35;;;11.40;99.90;;;;;;5130196;27;20046;-76
2022/04/13 05:12:48;;;;;;;21.65;15.10;;;11.50;99.90;;;;;;5134869;27;20474;-76
2022/04/13 05:15:14;;;;;;;20.40;14.88;;;11.60;99.90;;;;;;5129283;27;20042;-78
2022/04/13 05:17:40;;;;;;;25.10;16.25;;;11.50;99.90;;;;;;5131937;27;20043;-76
2022/04/13 05:20:07;;;;;;;28.77;16.15;;;11.50;99.90;;;;;;5114684;27;20426;-77
2022/04/13 05:22:32;;;;;;;28.40;15.68;;;11.60;99.90;;;;;;5112541;27;20051;-77
2022/04/13 05:25:06;;;;;;;21.08;15.25;;;11.70;99.90;;;;;;5153498;27;20066;-75
2022/04/13 05:27:32;;;;;;;18.67;14.93;;;11.60;99.90;;;;;;5120285;27;20073;-77
2022/04/13 05:29:57;;;;;;;19.35;14.65;;;11.60;99.90;;;;;;5120166;27;20122;-76
2022/04/13 05:32:23;;;;;;;20.92;14.75;;;11.60;99.90;;;;;;5136919;27;20237;-77
2022/04/13 05:34:49;;;;;;;21.55;14.60;;;11.60;99.90;;;;;;5154854;27;20042;-76
2022/04/13 05:37:14;;;;;;;22.08;14.55;;;11.60;99.90;;;;;;5137117;27;20402;-76
2022/04/13 05:39:40;;;;;;;21.65;15.05;;;11.60;99.90;;;;;;5136502;27;20038;-76
2022/04/13 05:42:06;;;;;;;19.23;15.70;;;11.60;99.90;;;;;;5136801;27;20079;-76
2022/04/13 05:44:31;;;;;;;22.98;14.75;;;11.60;99.90;;;;;;5136058;27;20070;-77
2022/04/13 05:46:57;;;;;;;23.40;15.75;;;11.60;99.90;;;;;;5136696;27;20053;-76
2022/04/13 05:49:22;;;;;;;22.58;15.13;;;11.70;99.90;;;;;;5119796;27;20046;-78
2022/04/13 05:51:48;;;;;;;22.27;15.25;;;11.70;99.90;;;;;;5136038;27;20044;-76
2022/04/13 05:54:14;;;;;;;20.65;15.05;;;11.60;99.90;;;;;;5136620;27;20423;-76
2022/04/13 05:56:39;;;;;;;25.23;16.02;;;11.70;99.90;;;;;;5118819;27;20043;-77
2022/04/13 05:59:05;;;;;;;21.17;15.55;;;11.70;99.90;;;;;;5136358;27;20129;-77
2022/04/13 06:01:31;;;;;;;24.25;15.38;;;11.80;99.90;;;;;;5102465;27;20055;-76
2022/04/13 06:03:56;;;;;;;24.50;15.35;;;11.80;99.90;;;;;;5154332;27;20069;-77
2022/04/13 06:06:25;;;;;;;25.73;16.40;;;11.80;99.90;;;;;;5154713;27;20407;-74
2022/04/13 06:08:51;;;;;;;22.80;15.00;;;11.80;99.90;;;;;;5136457;27;20058;-76
2022/04/13 06:11:16;;;;;;;23.50;16.02;;;11.90;99.90;;;;;;5136233;27;20042;-81
2022/04/13 06:13:42;;;;;;;25.88;15.55;;;11.90;99.90;;;;;;5136041;27;20510;-76
2022/04/13 06:16:08;;;;;;;26.65;16.88;;;12.00;99.90;;;;;;5136139;27;20428;-76
2022/04/13 06:18:33;;;;;;;22.08;15.93;;;12.00;99.90;;;;;;5136425;27;20050;-76
2022/04/13 06:20:59;;;;;;;22.60;15.75;;;12.10;99.90;;;;;;5136112;27;20166;-76
2022/04/13 06:23:25;;;;;;;25.30;16.85;;;12.10;99.90;;;;;;5101972;27;20453;-76
2022/04/13 06:25:50;;;;;;;23.27;16.38;;;12.10;99.90;;;;;;5118879;27;20047;-76
2022/04/13 06:28:16;;;;;;;20.48;16.20;;;12.20;99.90;;;;;;5154477;27;20049;-75
2022/04/13 06:30:43;;;;;;;22.65;17.67;;;12.20;99.90;;;;;;5153948;27;20063;-76
2022/04/13 06:33:09;;;;;;;23.33;17.60;;;12.30;99.90;;;;;;5136254;27;20471;-76
2022/04/13 06:35:35;;;;;;;25.05;17.02;;;12.40;99.90;;;;;;5135928;27;20051;-76
2022/04/13 06:38:00;;;;;;;22.35;17.77;;;12.50;99.90;;;;;;5135706;27;20042;-76
2022/04/13 06:40:26;;;;;;;25.13;16.83;;;12.50;99.90;;;;;;5154295;27;20099;-76
2022/04/13 06:42:51;;;;;;;24.45;17.45;;;12.60;99.90;;;;;;5135475;27;20090;-76
2022/04/13 06:45:17;;;;;;;23.33;16.63;;;12.60;99.90;;;;;;5153898;27;20059;-76
2022/04/13 06:47:43;;;;;;;24.17;16.88;;;12.60;99.90;;;;;;5153881;27;20055;-76
2022/04/13 06:50:09;;;;;;;22.98;17.60;;;12.70;99.90;;;;;;5154279;27;20076;-76
2022/04/13 06:52:35;;;;;;;28.55;17.63;;;12.70;99.90;;;;;;5153890;27;20507;-76
2022/04/13 06:55:01;;;;;;;19.73;16.13;;;12.80;99.90;;;;;;5101675;27;20046;-77
2022/04/13 06:57:27;;;;;;;24.92;16.50;;;12.80;99.90;;;;;;5154276;27;20050;-76
2022/04/13 06:59:52;;;;;;;19.70;16.17;;;12.80;99.90;;;;;;5118299;27;20498;-76
2022/04/13 07:02:18;;;;;;;22.42;16.40;;;12.90;99.90;;;;;;5118883;27;20473;-76
2022/04/13 07:04:44;;;;;;;20.52;15.35;;;13.00;99.90;;;;;;5135443;27;20103;-76
2022/04/13 07:07:09;;;;;;;20.92;16.13;;;13.00;99.90;;;;;;5154102;27;20043;-76
2022/04/13 07:09:35;;;;;;;24.80;15.40;;;13.10;99.90;;;;;;5153750;27;20110;-76
2022/04/13 07:12:00;;;;;;;22.63;15.98;;;13.10;99.90;;;;;;5153705;27;20453;-76
2022/04/13 07:14:26;;;;;;;24.33;15.18;;;13.10;99.90;;;;;;5154159;27;20505;-76
2022/04/13 07:16:52;;;;;;;18.77;14.50;;;13.20;99.90;;;;;;5135195;27;20043;-76
2022/04/13 07:19:17;;;;;;;19.35;14.23;;;13.30;99.90;;;;;;5135735;27;20080;-76
2022/04/13 07:21:43;;;;;;;17.38;13.95;;;13.40;99.90;;;;;;5118023;27;20039;-77
2022/04/13 07:24:10;;;;;;;23.02;15.18;;;13.50;99.90;;;;;;5135315;27;20038;-76
2022/04/13 07:26:37;;;;;;;18.15;13.38;;;13.60;99.90;;;;;;5135746;27;20054;-76
2022/04/13 07:29:02;;;;;;;20.02;13.85;;;13.70;99.90;;;;;;5135186;27;20390;-76
2022/04/13 07:31:28;;;;;;;20.88;13.10;;;13.70;99.90;;;;;;5135500;27;20039;-76
2022/04/13 07:33:54;;;;;;;21.42;13.20;;;13.80;99.90;;;;;;5118748;27;20050;-76
2022/04/13 07:36:19;;;;;;;18.02;13.63;;;13.80;99.90;;;;;;5157643;27;20039;-76
2022/04/13 07:38:45;;;;;;;20.35;13.18;;;13.80;99.90;;;;;;5157179;27;20046;-77
2022/04/13 07:41:11;;;;;;;21.33;13.77;;;13.80;99.90;;;;;;5122256;27;20145;-76
2022/04/13 07:43:36;;;;;;;21.00;13.15;;;13.90;99.90;;;;;;5138892;27;20430;-76
2022/04/13 07:46:02;;;;;;;19.63;13.80;;;13.90;99.90;;;;;;5156995;27;20046;-77
2022/04/13 07:48:29;;;;;;;20.70;13.48;;;13.90;99.90;;;;;;5138686;27;20559;-76
2022/04/13 07:50:55;;;;;;;21.42;13.13;;;13.90;99.90;;;;;;5156948;27;20093;-76
2022/04/13 07:53:21;;;;;;;17.80;12.88;;;13.90;99.90;;;;;;5121957;27;20498;-76
2022/04/13 07:55:46;;;;;;;16.92;12.88;;;14.00;99.90;;;;;;5138593;27;20046;-81
2022/04/13 07:58:12;;;;;;;18.83;13.07;;;14.00;99.90;;;;;;5157077;27;20072;-75
2022/04/13 08:00:37;;;;;;;21.00;13.15;;;14.00;99.90;;;;;;5138998;27;20043;-76
2022/04/13 08:03:04;;;;;;;17.88;12.93;;;14.10;99.90;;;;;;5156766;27;20043;-76
2022/04/13 08:05:29;;;;;;;17.67;12.57;;;14.10;99.90;;;;;;5157161;27;20074;-76
2022/04/13 08:07:55;;;;;;;16.65;12.80;;;14.10;99.90;;;;;;5138201;27;20081;-76
2022/04/13 08:10:21;;;;;;;18.90;13.20;;;14.20;99.90;;;;;;5138820;27;20039;-76
2022/04/13 08:12:46;;;;;;;18.95;13.20;;;14.20;99.90;;;;;;5121537;27;20039;-76
2022/04/13 08:15:12;;;;;;;20.83;13.57;;;14.30;99.90;;;;;;5156424;27;20053;-76
2022/04/13 08:17:39;;;;;;;18.77;12.90;;;14.30;99.90;;;;;;5138530;27;20538;-76
2022/04/13 08:20:06;;;;;;;17.77;12.38;;;14.30;99.90;;;;;;5120508;27;20058;-76
2022/04/13 08:22:32;;;;;;;18.02;12.65;;;14.30;99.90;;;;;;5157137;27;20116;-76
2022/04/13 08:24:58;;;;;;;24.05;12.98;;;14.30;99.90;;;;;;5138069;27;20498;-77
2022/04/13 08:27:23;;;;;;;20.95;12.80;;;14.40;99.90;;;;;;5138208;27;20042;-77
2022/04/13 08:29:49;;;;;;;19.10;12.25;;;14.40;99.90;;;;;;5138230;27;20394;-77
2022/04/13 08:32:18;;;;;;;21.65;12.00;;;14.40;99.90;;;;;;5156057;27;20042;-76
2022/04/13 08:34:45;;;;;;;16.65;11.90;;;14.50;99.90;;;;;;5138083;27;20057;-77
2022/04/13 08:37:11;;;;;;;16.67;11.68;;;14.50;99.90;;;;;;5156004;27;20089;-77
2022/04/13 08:39:37;;;;;;;22.08;12.52;;;14.50;99.90;;;;;;5104078;27;20046;-79
2022/04/13 08:42:09;;;;;;;16.85;11.95;;;14.60;99.90;;;;;;5137749;27;20053;-79
2022/04/13 08:44:46;;;;;;;17.35;11.85;;;14.70;99.90;;;;;;5121168;27;20055;-78
2022/04/13 08:47:20;;;;;;;15.10;11.43;;;14.80;99.90;;;;;;5137756;27;20485;-81
2022/04/13 08:49:46;;;;;;;17.10;11.95;;;14.80;99.90;;;;;;5138089;27;20050;-80
2022/04/13 08:52:14;;;;;;;14.85;10.45;;;14.90;99.90;;;;;;5137380;27;20074;-78
2022/04/13 08:55:05;;;;;;;15.85;11.73;;;15.00;99.90;;;;;;5120785;27;20047;-77
2022/04/13 08:57:47;;;;;;;13.95;11.07;;;15.10;99.90;;;;;;5122972;27;20115;-77
2022/04/13 09:00:13;;;;;;;;;;;15.10;99.90;;;;;;5119384;27;20540;-77
2022/04/13 09:02:50;;;;;;;17.58;10.77;;;15.00;99.90;;;;;;5136728;27;19919;-77
2022/04/13 09:05:39;;;;;;;15.60;10.30;;;15.10;99.90;;;;;;5136908;27;20261;-77
2022/04/13 09:08:42;;;;;;;14.43;10.25;;;15.10;99.90;;;;;;5151893;27;20058;-77
2022/04/13 09:11:39;;;;;;;13.98;10.02;;;15.10;99.90;;;;;;5115033;27;20133;-77
2022/04/13 09:14:07;;;;;;;18.52;10.35;;;15.10;99.90;;;;;;5135691;27;20439;-77
2022/04/13 09:17:03;;;;;;;13.23;9.75;;;15.10;99.90;;;;;;5121295;27;20087;-77
2022/04/13 09:20:02;;;;;;;13.65;9.68;;;15.10;99.90;;;;;;5124331;27;20174;-78
2022/04/13 09:22:31;;;;;;;12.60;9.98;;;15.10;99.90;;;;;;5121985;27;20046;-77
2022/04/13 09:25:05;;;;;;;13.32;8.98;;;15.10;99.90;;;;;;5104134;27;20107;-78
2022/04/13 09:27:33;;;;;;;13.82;9.32;;;15.10;99.90;;;;;;5085965;27;20062;-78
2022/04/13 09:29:59;;;;;;;13.70;8.93;;;15.10;99.90;;;;;;5101264;27;20058;-82
2022/04/13 09:32:31;;;;;;;12.73;7.97;;;15.10;99.90;;;;;;5120849;27;20447;-78
2022/04/13 09:35:01;;;;;;;11.13;7.60;;;15.20;99.90;;;;;;5085879;27;20083;-77
2022/04/13 09:37:28;;;;;;;9.88;7.00;;;15.30;99.90;;;;;;5086662;27;20038;-78
2022/04/13 09:40:54;;;;;;;10.38;6.70;;;15.30;99.90;;;;;;5139235;27;20064;-77
2022/04/13 09:43:26;;;;;;;14.80;8.35;;;15.30;99.90;;;;;;5136191;27;20535;-78
2022/04/13 09:46:08;;;;;;;12.13;7.78;;;15.30;99.90;;;;;;5108626;27;20115;-78
2022/04/13 09:48:37;;;;;;;10.57;7.57;;;15.30;99.90;;;;;;5120420;27;20517;-78
2022/04/13 09:51:08;;;;;;;10.25;7.40;;;15.40;99.90;;;;;;5103006;27;20041;-78
2022/04/13 09:53:33;;;;;;;11.73;6.70;;;15.50;99.90;;;;;;5135020;27;20142;-78
2022/04/13 09:56:24;;;;;;;;;;;15.50;99.90;;;;;;5061543;28;20504;-78
2022/04/13 09:59:02;;;;;;;9.63;6.15;;;15.60;99.90;;;;;;5091067;28;20497;-78
2022/04/13 10:01:33;;;;;;;10.30;5.85;;;15.60;99.90;;;;;;5042386;28;20128;-78
2022/04/13 10:04:12;;;;;;;10.57;5.60;;;15.70;99.90;;;;;;5075146;28;20584;-78
2022/04/13 10:06:44;;;;;;;9.95;6.05;;;15.70;99.90;;;;;;5059309;28;20067;-78
2022/04/13 10:09:12;;;;;;;10.70;6.40;;;15.70;99.90;;;;;;5040677;28;20040;-78
2022/04/13 10:11:38;;;;;;;7.90;4.47;;;15.70;99.90;;;;;;5056750;28;20099;-76
2022/04/13 10:14:16;;;;;;;8.13;5.07;;;15.80;99.90;;;;;;5073925;28;20063;-78
2022/04/13 10:16:48;;;;;;;11.02;5.43;;;15.80;99.90;;;;;;5072622;28;20052;-78
2022/04/13 10:19:33;;;;;;;6.95;4.60;;;15.80;99.90;;;;;;5090259;28;20040;-79
2022/04/13 10:22:04;;;;;;;8.32;4.18;;;15.90;99.90;;;;;;5074088;28;20149;-78
2022/04/13 10:24:40;;;;;;;7.32;4.38;;;16.10;99.90;;;;;;5089871;28;20067;-78
2022/04/13 10:27:19;;;;;;;7.28;4.03;;;16.20;99.90;;;;;;5106991;27;20061;-78
2022/04/13 10:30:01;;;;;;;8.80;4.47;;;16.20;99.90;;;;;;5102954;27;20049;-78
2022/04/13 10:32:29;;;;;;;8.45;4.70;;;16.30;99.90;;;;;;5136832;27;20363;-78
2022/04/13 10:35:03;;;;;;;8.82;4.63;;;16.30;99.90;;;;;;5117907;27;20130;-78
2022/04/13 10:37:30;;;;;;;7.30;3.83;;;16.40;99.90;;;;;;5116623;27;20388;-78
2022/04/13 10:39:59;;;;;;;9.43;3.70;;;16.40;99.90;;;;;;5101963;27;20328;-78
2022/04/13 10:42:35;;;;;;;7.97;4.00;;;16.50;99.90;;;;;;5135888;27;20043;-78
2022/04/13 10:45:08;;;;;;;6.18;3.47;;;16.60;99.90;;;;;;5119176;27;20082;-78
2022/04/13 10:48:12;;;;;;;8.65;4.05;;;16.60;99.90;;;;;;5119417;27;20050;-78
2022/04/13 10:50:54;;;;;;;8.73;4.30;;;16.70;98.70;;;;;;5135998;27;20050;-78
2022/04/13 10:53:24;;;;;;;8.98;4.55;;;16.70;99.80;;;;;;5119296;27;20076;-78
2022/04/13 10:56:02;;;;;;;10.38;4.18;;;16.80;99.70;;;;;;5101284;27;20151;-78
2022/04/13 10:59:05;;;;;;;9.55;4.20;;;16.80;99.90;;;;;;5100961;27;20057;-78
2022/04/13 11:01:42;;;;;;;9.23;3.80;;;16.90;99.90;;;;;;5135816;27;20067;-78
2022/04/13 11:04:07;;;;;;;10.52;4.50;;;17.00;98.60;;;;;;5100482;27;20058;-78
2022/04/13 11:06:38;;;;;;;7.70;3.80;;;17.00;98.70;;;;;;5100734;27;20055;-78
2022/04/13 11:09:09;;;;;;;8.40;5.28;;;17.00;98.10;;;;;;5119584;27;20125;-78
2022/04/13 11:11:36;;;;;;;12.07;5.15;;;17.10;98.60;;;;;;5122091;27;20047;-78
2022/04/13 11:14:20;;;;;;;10.32;4.05;;;17.10;98.70;;;;;;5078684;28;20131;-79
2022/04/13 11:16:48;;;;;;;8.00;3.30;;;17.20;98.00;;;;;;5060383;28;20098;-78
2022/04/13 11:19:25;;;;;;;8.10;3.20;;;17.30;97.30;;;;;;5076659;28;20286;-78
2022/04/13 11:21:54;;;;;;;6.43;3.50;;;17.40;94.80;;;;;;5094074;28;20040;-78
2022/04/13 11:24:42;;;;;;;8.55;3.80;;;17.50;96.40;;;;;;5093302;28;20055;-78
2022/04/13 11:27:25;;;;;;;11.95;3.55;;;17.60;96.00;;;;;;5061009;28;20043;-79
2022/04/13 11:30:00;;;;;;;9.88;4.32;;;17.70;95.90;;;;;;5093894;28;20058;-79
2022/04/13 11:35:47;;;;;;;8.77;3.50;;;17.70;96.30;;;;;;5127674;27;1309685;-77
2022/04/13 11:38:13;;;;;;;;;;;17.60;95.70;;;;;;5116884;27;20053;-78
2022/04/13 11:41:03;;;;;;;5.40;2.00;;;17.50;93.70;;;;;;5130475;27;19919;-78
2022/04/13 11:43:36;;;;;;;8.48;1.50;;;17.40;94.40;;;;;;5150874;27;20081;-77
2022/04/13 11:46:11;;;;;;;7.28;1.83;;;17.20;94.40;;;;;;5101380;27;20043;-77
2022/04/13 11:48:38;;;;;;;4.75;1.80;;;17.20;94.20;;;;;;5116276;27;20232;-77
2022/04/13 11:51:24;;;;;;;7.47;2.45;;;17.10;94.70;;;;;;5116647;27;20043;-77
2022/04/13 11:54:15;;;;;;;4.57;2.28;;;17.10;93.50;;;;;;5115253;27;20051;-78
2022/04/13 11:57:01;;;;;;;6.60;2.72;;;17.00;94.10;;;;;;5150348;27;20055;-78
2022/04/13 11:59:50;;;;;;;8.90;2.88;;;17.00;94.60;;;;;;5132603;27;20059;-78
2022/04/13 12:02:16;;;;;;;9.90;3.50;;;17.00;95.20;;;;;;5133481;27;20043;-78
2022/04/13 12:04:50;;;;;;;7.45;3.05;;;16.90;95.50;;;;;;5132626;27;20039;-77
2022/04/13 12:07:17;;;;;;;10.52;3.22;;;16.90;95.10;;;;;;5099135;27;20043;-78
2022/04/13 12:09:49;;;;;;;9.05;3.97;;;16.90;96.20;;;;;;5116580;27;20086;-77
2022/04/13 12:12:18;;;;;;;9.50;3.45;;;16.80;96.80;;;;;;5098521;27;20078;-78
2022/04/13 12:14:45;;;;;;;12.45;3.75;;;16.80;97.20;;;;;;5099241;27;20042;-77
2022/04/13 12:17:15;;;;;;;12.32;3.95;;;16.80;97.20;;;;;;5100159;27;20053;-78
2022/04/13 12:19:42;;;;;;;14.30;4.60;;;16.80;97.40;;;;;;5115441;27;20269;-77
2022/04/13 12:22:18;;;;;;;9.45;3.70;;;16.80;97.40;;;;;;5115659;27;20043;-76
2022/04/13 12:25:03;;;;;;;11.18;4.10;;;16.90;97.90;;;;;;5150437;27;20043;-76
2022/04/13 12:27:30;;;;;;;10.88;3.90;;;17.00;97.20;;;;;;5131860;27;20042;-77
2022/04/13 12:30:11;;;;;;;12.85;4.32;;;17.00;96.80;;;;;;5150736;27;20552;-77
2022/04/13 12:32:45;;;;;;;11.65;4.57;;;17.00;96.70;;;;;;5131623;27;20560;-77
2022/04/13 12:35:24;;;;;;;9.63;4.68;;;17.00;97.00;;;;;;5150654;27;20101;-77
2022/04/13 12:38:01;;;;;;;10.60;4.80;;;16.90;97.40;;;;;;5133181;27;20046;-78
2022/04/13 12:40:28;;;;;;;10.13;4.80;;;16.90;97.10;;;;;;5149645;27;20058;-78
2022/04/13 12:42:54;;;;;;;12.27;4.70;;;16.80;97.30;;;;;;5098835;27;20519;-77
2022/04/13 12:45:29;;;;;;;9.65;4.10;;;16.70;97.30;;;;;;5128013;27;20051;-77
2022/04/13 12:47:57;;;;;;;11.82;4.40;;;16.70;97.30;;;;;;5102204;27;20372;-77